Tiempo atmosférico en la estación meteorológica de Fuentes de Andalucía, Sevilla (165 m.)



Fecha
DESCASC
Temp. máxima en grados centígrados (hora)
DESCASC
Temp. mínima en grados centígrados (hora)
DESCASC
Temp. media en grados centígrados
DESCASC
Racha de viento máxima en m/sg (hora)
DESCASC
Velocidad máxima media en intervalos de 10 minutos(hora)
DESCASC
Precipitaciones diarias en mm
DESCASC
Precipitaciones de 00:00 a 06:00 en mm
DESCASC
Precipitaciones de 06:00 a 12:00 en mm
DESCASC
Precipitaciones de 12:00 a 18:00 en mm
DESCASC
Precipitaciones de 18:00 a 24:00 en mm
DESCASC
07-08-2020 37.3 (17:50) 23.1 (08:00) 30.2 8.06 (18:40) 5.83 (23:40) 0 0 0 0 0
06-08-2020 -- (--) -- (--) -- -- (--) -- (--) -- -- -- 0 0
05-08-2020 -- (--) -- (--) -- -- (--) -- (--) 0 0 0 0 0
04-08-2020 -- (--) -- (--) -- -- (--) -- (--) 0 0 0 0 0
03-08-2020 -- (--) -- (--) -- -- (--) -- (--) -- -- 0 0 0
02-08-2020 39.5 (17:20) 24.3 (07:20) 31.9 13.61 (19:50) 10.56 (20:00) 0 0 0 0 0
01-08-2020 42.4 (18:40) 23.4 (00:00) 32.9 10.28 (20:50) 7.5 (20:50) 0 0 0 0 0
31-07-2020 39.1 (16:50) 22.6 (07:40) 30.8 8.33 (17:30) 5.83 (18:10) 0 0 0 0 0
30-07-2020 38.8 (16:50) 24 (00:00) 31.4 10.28 (19:40) 7.22 (21:20) 0 0 0 0 0
29-07-2020 38.7 (18:10) 22.7 (00:00) 30.7 8.06 (00:20) 5.83 (00:10) 0 0 0 0 0
28-07-2020 39.1 (17:20) 22 (05:50) 30.5 8.33 (20:50) 6.39 (20:50) 0 0 0 0 0
27-07-2020 36.8 (16:30) 24.1 (00:00) 30.4 11.39 (20:20) 8.33 (20:20) 0 0 0 0 0
26-07-2020 43.7 (18:30) 23.7 (00:00) 33.7 10.28 (19:10) 7.22 (23:59) 0 0 0 0 0
25-07-2020 40.6 (16:40) 23.6 (08:10) 32.1 8.61 (18:50) 5.83 (18:40) 0 0 0 0 0
24-07-2020 40 (16:20) 24.8 (00:00) 32.4 10 (18:10) 6.11 (22:00) 0 0 0 0 0
23-07-2020 39.3 (17:50) 22.1 (00:00) 30.7 11.11 (20:10) 8.61 (20:30) 0 0 0 0 0
22-07-2020 35.2 (19:00) 21.1 (07:50) 28.2 9.72 (20:50) 7.5 (20:50) 0 0 0 0 0
21-07-2020 34.9 (18:20) 23.7 (00:00) 29.3 11.39 (03:10) 8.61 (19:20) 1.4 1.2 0.2 0 0
20-07-2020 41.9 (17:20) 23 (07:50) 32.5 11.11 (23:20) 5.28 (23:20) 0 0 0 0 0
19-07-2020 38 (17:40) 22.2 (00:00) 30.1 10.28 (16:20) 6.11 (17:50) 0 0 0 0 0
18-07-2020 37.3 (17:50) 23 (00:00) 30.1 11.11 (18:00) 7.5 (19:50) 0 0 0 0 0
17-07-2020 41.4 (18:40) 23.3 (00:00) 32.4 11.39 (21:00) 8.61 (21:00) 0 0 0 0 0
16-07-2020 39 (17:40) 24.8 (00:00) 31.9 11.11 (12:00) 6.39 (12:00) 0 0 0 0 0
15-07-2020 37.1 (17:10) 22.3 (07:20) 29.7 11.39 (13:40) 6.39 (15:20) 0 0 0 0 0
14-07-2020 38.3 (18:40) 22.4 (00:00) 30.3 10.56 (20:00) 8.06 (19:50) 0 0 0 0 0
13-07-2020 38.6 (18:20) 22.1 (07:20) 30.3 10.83 (20:40) 7.78 (22:10) 0 0 0 0 0

Gráficas

Temp. máximas Temp. mínimas Temp. medias Precipitaciones Rachas de viento máximas Velocidades máximas media en intervalos de 10 minutos

Datos horarios

Fecha y hora oficial Temperatura (ºC) Velocidad del viento (km/h) Dirección del viento Racha (km/h) Dirección de racha Precipitación (mm) Presión (hPa) Tendencia (hPa) Humedad (%)
2020-08-11 23:00:00 22.9 18 Sudoeste 29 Sudoeste 0 -- -- 67
2020-08-11 22:00:00 24.8 26 Sudoeste 36 Sudoeste 0 -- -- 55
2020-08-11 21:00:00 27.3 27 Sudoeste 41 Sudoeste 0 -- -- 46
2020-08-11 20:00:00 29.4 32 Sudoeste 46 Sudoeste 0 -- -- 49
2020-08-11 19:00:00 31.1 35 Sudoeste 48 Sudoeste 0 -- -- 46
2020-08-11 18:00:00 32 35 Sudoeste 48 Sudoeste 0 -- -- 47
2020-08-11 17:00:00 31.8 33 Oeste 44 Sudoeste 0 -- -- 53
2020-08-11 16:00:00 30.7 18 Sudoeste 30 Oeste 0 -- -- 58
2020-08-11 15:00:00 27.4 22 Oeste 31 Oeste 0 -- -- 69
2020-08-11 14:00:00 28.4 7 Oeste 17 Oeste 0.2 -- -- 61
2020-08-11 13:00:00 29.6 13 Oeste 20 Oeste 0 -- -- 51
2020-08-11 12:00:00 28.9 5 Norte 12 Noroeste 0 -- -- 53
2020-08-11 11:00:00 27.1 3 Noroeste 8 Oeste 0 -- -- 60
2020-08-11 10:00:00 25.5 4 Norte 9 Sudeste 0 -- -- 61
2020-08-11 09:00:00 23.6 4 Sudeste 7 Sudeste 0 -- -- 72
2020-08-11 08:00:00 23.4 0 Calma 8 Oeste 0 -- -- 66
2020-08-11 07:00:00 22.8 7 Oeste 10 Oeste 0 -- -- 69
2020-08-11 06:00:00 23.4 0 Calma 4 Noroeste 0 -- -- 67
2020-08-11 05:00:00 23.1 3 Noroeste 14 Sur 0 -- -- 67
2020-08-11 04:00:00 24.2 9 Sur 13 Sudoeste 0 -- -- 63
2020-08-11 03:00:00 24.6 10 Sudoeste 17 Sudoeste 0 -- -- 59
2020-08-11 02:00:00 25.5 8 Sudoeste 14 Sudoeste 0 -- -- 53
2020-08-11 01:00:00 26.1 13 Sudoeste 21 Sudoeste 0 -- -- 55
2020-08-11 00:00:00 27.6 21 Sudoeste 33 Sudoeste 0 -- -- 57
2020-08-10 23:00:00 28.8 23 Sudoeste 36 Sudoeste 0 -- -- 52
2020-08-10 22:00:00 30 25 Sudoeste 34 Sudoeste 0 -- -- 52
2020-08-10 21:00:00 31.9 20 Oeste 27 Oeste 0 -- -- 51
2020-08-10 20:00:00 35.1 12 Sudoeste 21 Sudoeste 0 -- -- 38
2020-08-10 19:00:00 36.1 12 Sudoeste 20 Sudoeste 0 -- -- 34
2020-08-10 18:00:00 36 11 Sudoeste 22 Sudoeste 0 -- -- 34
2020-08-10 17:00:00 35.6 7 Sudeste 22 Sudoeste 0 -- -- 36
2020-08-10 16:00:00 33.5 9 Noroeste 18 Noroeste 0 -- -- 42
2020-08-10 15:00:00 32.7 5 Norte 24 Oeste 0 -- -- 43
2020-08-10 14:00:00 30.6 3 Oeste 13 Oeste 0 -- -- 52
2020-08-10 13:00:00 28.9 6 Este 12 Nordeste 0 -- -- 58
2020-08-10 12:00:00 27 5 Este 13 Este 0 -- -- 68
2020-08-10 11:00:00 24.4 3 Sur 10 Este 0.4 -- -- 81
2020-08-10 10:00:00 24.1 4 Este 14 Sudoeste 0 -- -- 80
2020-08-10 09:00:00 23.8 7 Sudoeste 12 Sudoeste 0 -- -- 82
2020-08-10 08:00:00 23 5 Oeste 19 Sudoeste 0.6 -- -- 87
2020-08-10 07:00:00 23.2 12 Sudoeste 15 Sudoeste 1 -- -- 84
2020-08-10 06:00:00 23.8 9 Sudoeste 12 Sudoeste 0 -- -- 78
2020-08-10 05:00:00 23.9 11 Sudoeste 12 Sudoeste 0 -- -- 74
2020-08-10 04:00:00 24.5 11 Sudoeste 14 Sudoeste 0 -- -- 72
2020-08-10 03:00:00 25.9 12 Sur 16 Sur 0 -- -- 67
2020-08-10 02:00:00 26.4 9 Sudoeste 19 Sudoeste 0 -- -- 63
2020-08-10 01:00:00 27.2 15 Sudoeste 27 Sudoeste 0 -- -- 60
2020-08-10 00:00:00 27.9 18 Sudoeste 24 Sudoeste 0 -- -- 57
2020-08-09 23:00:00 29.2 20 Sudoeste 29 Sudoeste 0 -- -- 52
2020-08-09 22:00:00 31.3 22 Sudoeste 33 Sudoeste 0 -- -- 51
2020-08-09 21:00:00 34.8 18 Oeste 24 Oeste 0 -- -- 38
2020-08-09 20:00:00 36.4 19 Oeste 29 Oeste 0 -- -- 30
2020-08-09 19:00:00 37.2 19 Oeste 30 Oeste 0 -- -- 29
2020-08-09 18:00:00 37.8 18 Oeste 30 Oeste 0 -- -- 28
2020-08-09 17:00:00 38.4 14 Oeste 28 Sudoeste 0 -- -- 26
2020-08-09 16:00:00 37.5 9 Oeste 23 Sudoeste 0 -- -- 25
2020-08-09 15:00:00 36.5 8 Noroeste 19 Oeste 0 -- -- 25
2020-08-09 14:00:00 34.5 10 Oeste 18 Oeste 0 -- -- 27
2020-08-09 13:00:00 33 4 Norte 14 Noroeste 0 -- -- 30
2020-08-09 12:00:00 30.9 5 Noroeste 12 Noroeste 0 -- -- 36
2020-08-09 11:00:00 28.7 3 Norte 10 Noroeste 0 -- -- 44
2020-08-09 10:00:00 26.6 2 Sur 8 Sudoeste 0 -- -- 51
2020-08-09 09:00:00 24.5 3 Sudeste 10 Sudoeste 0 -- -- 58
2020-08-09 08:00:00 22.8 9 Sudoeste 12 Oeste 0 -- -- 59
2020-08-09 07:00:00 23 8 Oeste 13 Sudoeste 0 -- -- 60
2020-08-09 06:00:00 23 11 Sudoeste 19 Sudoeste 0 -- -- 64
2020-08-09 05:00:00 23.8 14 Sur 17 Sur 0 -- -- 60
2020-08-09 04:00:00 24.6 15 Sur 17 Sur 0 -- -- 59
2020-08-09 03:00:00 25 14 Sur 17 Sur 0 -- -- 57
2020-08-09 02:00:00 26 14 Sudoeste 19 Sur 0 -- -- 54
2020-08-09 01:00:00 27.2 15 Sur 19 Sudoeste 0 -- -- 50
2020-08-09 00:00:00 28.5 16 Sur 21 Sur 0 -- -- 48
2020-08-08 23:00:00 29.8 16 Sudoeste 29 Sudoeste 0 -- -- 45
2020-08-08 22:00:00 31.9 21 Sudoeste 30 Sudoeste 0 -- -- 43
2020-08-08 21:00:00 35.5 14 Noroeste 22 Oeste 0 -- -- 30
2020-08-08 20:00:00 37.6 14 Oeste 24 Noroeste 0 -- -- 27
2020-08-08 19:00:00 38.8 17 Noroeste 24 Oeste 0 -- -- 26
2020-08-08 18:00:00 40 8 Oeste 17 Sudoeste 0 -- -- 23
2020-08-08 17:00:00 39.6 3 Nordeste 23 Oeste 0 -- -- 23
2020-08-08 16:00:00 38.7 8 Oeste 19 Oeste 0 -- -- 24
2020-08-08 15:00:00 37.2 5 Oeste 16 Noroeste 0 -- -- 24
2020-08-08 14:00:00 35.2 7 Norte 18 Oeste 0 -- -- 29
2020-08-08 13:00:00 32.9 9 Oeste 18 Sur 0 -- -- 33
2020-08-08 12:00:00 32 6 Este 18 Sur 0 -- -- 32
2020-08-08 11:00:00 28.6 12 Sur 20 Sudoeste 0 -- -- 46
2020-08-08 10:00:00 25.5 9 Noroeste 30 Oeste 0 -- -- 63
2020-08-08 09:00:00 24.4 5 Oeste 18 Sudeste 0 -- -- 69
2020-08-08 08:00:00 24 5 Sur 14 Sudoeste 0 -- -- 70
2020-08-08 07:00:00 24.2 8 Sur 15 Sur 0 -- -- 68
2020-08-08 06:00:00 24.3 5 Sudoeste 19 Sudoeste 0 -- -- 69
2020-08-08 05:00:00 24.6 5 Sudoeste 8 Nordeste 0 -- -- 68
2020-08-08 04:00:00 24.8 3 Este 10 Sur 0 -- -- 67
2020-08-08 03:00:00 24.7 6 Sur 13 Sudeste 0 -- -- 67
2020-08-08 02:00:00 24.8 9 Sudoeste 20 Sudoeste 0 -- -- 66
2020-08-08 01:00:00 25.7 16 Sudoeste 25 Sudoeste 0 -- -- 64
2020-08-08 00:00:00 27.4 18 Sudoeste 27 Sudoeste 0 -- -- 61
2020-08-07 23:00:00 29.2 16 Sudoeste 21 Sudoeste 0 -- -- 54
2020-08-07 22:00:00 30.7 18 Sudoeste 26 Sudoeste 0 -- -- 47
2020-08-07 21:00:00 33 17 Oeste 24 Oeste 0 -- -- 43
2020-08-07 20:00:00 34.9 15 Oeste 27 Oeste 0 -- -- 37
2020-08-07 19:00:00 36.1 20 Oeste 29 Oeste 0 -- -- 32
2020-08-07 18:00:00 37 12 Sudoeste 23 Sudoeste 0 -- -- 28
2020-08-07 17:00:00 36.5 14 Oeste 25 Oeste 0 -- -- 29
2020-08-07 16:00:00 36 13 Sudoeste 23 Oeste 0 -- -- 30
2020-08-07 15:00:00 35.3 14 Oeste 25 Sudoeste 0 -- -- 31
2020-08-07 14:00:00 33.8 12 Oeste 19 Oeste 0 -- -- 33
2020-08-07 13:00:00 31.8 9 Noroeste 18 Oeste 0 -- -- 39
2020-08-07 12:00:00 30.1 9 Oeste 18 Noroeste 0 -- -- 43
2020-08-07 11:00:00 28.5 14 Noroeste 21 Noroeste 0 -- -- 47
2020-08-07 10:00:00 27.1 13 Oeste 22 Oeste 0 -- -- 50
2020-08-07 09:00:00 24 7 Sudoeste 10 Sudoeste 0 -- -- 57
2020-08-07 08:00:00 23.1 5 Sur 12 Sur 0 -- -- 58
2020-08-07 07:00:00 23.6 6 Oeste 8 Oeste 0 -- -- 63
2020-08-07 06:00:00 25 4 Norte 6 Noroeste 0 -- -- 59
2020-08-07 05:00:00 25.6 3 Norte 7 Oeste 0 -- -- 56
2020-08-07 04:00:00 26.1 5 Oeste 7 Oeste 0 -- -- 55
2020-08-07 03:00:00 26.3 2 Norte 12 Noroeste 0 -- -- 55
2020-08-07 02:00:00 26.7 4 Nordeste 6 Nordeste 0 -- -- 56
2020-08-07 01:00:00 27.8 4 Noroeste 8 Oeste 0 -- -- 51
2020-08-07 00:00:00 28.8 6 Noroeste 20 Sudoeste 0 -- -- 46
2020-08-06 23:00:00 30 18 Sudoeste 39 Sudoeste 0 -- -- 46
2020-08-06 22:00:00 32.5 29 Sudoeste 38 Sudoeste 0 -- -- 37
2020-08-06 21:00:00 35.8 14 Sudeste 30 Sudeste 0 -- -- 22
2020-08-06 20:00:00 37.5 21 Sudeste 35 Sudeste 0 -- -- 20
2020-08-06 19:00:00 39.3 19 Sudeste 37 Sudeste 0 -- -- 19
2020-08-06 18:00:00 40.3 18 Sudeste 37 Sudeste 0 -- -- 20
2020-08-06 17:00:00 40.7 16 Sudeste 37 Sudeste 0 -- -- 22
2020-08-06 16:00:00 40.2 22 Sudeste 40 Este 0 -- -- 23
2020-08-06 15:00:00 39.1 20 Este 42 Este 0 -- -- 25
2020-08-06 14:00:00 37.5 22 Sudeste 46 Este 0 -- -- 27
2020-08-06 13:00:00 36.2 24 Sudeste 50 Este 0 -- -- 29
2020-08-06 12:00:00 34.4 19 Este 39 Sudeste 0 -- -- 33
2020-08-06 11:00:00 32.5 15 Este -- -- -- -- -- 36
2020-08-06 10:00:00 -- -- -- -- -- -- -- -- --
2020-08-06 09:00:00 -- -- -- -- -- -- -- -- --
2020-08-06 08:00:00 -- -- -- -- -- -- -- -- --
2020-08-06 07:00:00 -- -- -- -- -- -- -- -- --
2020-08-06 06:00:00 -- -- -- -- -- -- -- -- --
2020-08-06 05:00:00 -- -- -- -- -- -- -- -- --
2020-08-06 04:00:00 -- -- -- -- -- -- -- -- --
2020-08-06 03:00:00 -- -- -- -- -- -- -- -- --
2020-08-06 02:00:00 -- -- -- -- -- -- -- -- --
2020-08-06 01:00:00 -- -- -- -- -- -- -- -- --
2020-08-06 00:00:00 -- -- -- -- -- 0 -- -- --
2020-08-05 23:00:00 -- -- -- -- -- 0 -- -- --
2020-08-05 22:00:00 -- -- -- -- -- 0 -- -- --
2020-08-05 21:00:00 -- -- -- -- -- 0 -- -- --
2020-08-05 20:00:00 -- -- -- -- -- 0 -- -- --
2020-08-05 19:00:00 -- -- -- -- -- 0 -- -- --
2020-08-05 18:00:00 -- -- -- -- -- 0 -- -- --
2020-08-05 17:00:00 -- 13 Este 30 Este 0 -- -- --
2020-08-05 16:00:00 38.4 14 Este 33 Este 0 -- -- 24
2020-08-05 15:00:00 37.5 14 Sudeste 28 Este 0 -- -- 25
2020-08-05 14:00:00 36.5 17 Sudeste 33 Este 0 -- -- 25
2020-08-05 13:00:00 35.1 18 Sudeste 34 Este 0 -- -- 26
2020-08-05 12:00:00 -- -- -- -- -- -- -- -- --
2020-08-05 11:00:00 -- -- -- -- -- -- -- -- --
2020-08-05 10:00:00 -- -- -- -- -- -- -- -- --
2020-08-05 09:00:00 -- -- -- -- -- -- -- -- --
2020-08-05 08:00:00 -- -- -- -- -- -- -- -- --
2020-08-05 07:00:00 -- -- -- -- -- -- -- -- --
2020-08-05 06:00:00 -- -- -- -- -- -- -- -- --
2020-08-05 05:00:00 -- -- -- -- -- -- -- -- --
2020-08-05 04:00:00 -- -- -- -- -- -- -- -- --
2020-08-05 03:00:00 -- -- -- -- -- -- -- -- --
2020-08-05 02:00:00 -- -- -- -- -- -- -- -- --
2020-08-05 01:00:00 -- -- -- -- -- -- -- -- --
2020-08-05 00:00:00 -- -- -- -- -- -- -- -- --
2020-08-04 23:00:00 -- -- -- -- -- -- -- -- --
2020-08-04 22:00:00 -- -- -- -- -- -- -- -- --
2020-08-04 21:00:00 -- -- -- -- -- -- -- -- --
2020-08-04 20:00:00 -- -- -- -- -- -- -- -- --
2020-08-04 19:00:00 -- -- -- -- -- -- -- -- --
2020-08-04 18:00:00 -- -- -- -- -- -- -- -- --
2020-08-04 17:00:00 -- -- -- -- -- -- -- -- --
2020-08-04 16:00:00 -- -- -- -- -- -- -- -- --
2020-08-04 15:00:00 -- -- -- -- -- -- -- -- --
2020-08-04 14:00:00 -- -- -- -- -- -- -- -- --
2020-08-04 13:00:00 -- -- -- -- -- -- -- -- --
2020-08-04 12:00:00 -- -- -- -- -- -- -- -- --
2020-08-04 11:00:00 -- -- -- -- -- -- -- -- --
2020-08-04 10:00:00 -- -- -- -- -- -- -- -- --
2020-08-04 09:00:00 -- -- -- -- -- -- -- -- --
2020-08-04 08:00:00 -- -- -- -- -- -- -- -- --
2020-08-04 07:00:00 -- -- -- -- -- -- -- -- --
2020-08-04 06:00:00 -- -- -- -- -- -- -- -- --
2020-08-04 05:00:00 -- -- -- -- -- -- -- -- --
2020-08-04 04:00:00 -- -- -- -- -- -- -- -- --
2020-08-04 03:00:00 -- -- -- -- -- -- -- -- --
2020-08-04 02:00:00 -- -- -- -- -- -- -- -- --
2020-08-04 01:00:00 -- -- -- -- -- -- -- -- --
2020-08-04 00:00:00 -- -- -- -- -- -- -- -- --
2020-08-03 23:00:00 -- -- -- -- -- -- -- -- --
2020-08-03 22:00:00 -- -- -- -- -- -- -- -- --
2020-08-03 21:00:00 -- -- -- -- -- -- -- -- --
2020-08-03 20:00:00 -- -- -- -- -- -- -- -- --
2020-08-03 19:00:00 -- -- -- -- -- -- -- -- --
2020-08-03 18:00:00 -- -- -- -- -- -- -- -- --
2020-08-03 17:00:00 -- -- -- -- -- -- -- -- --
2020-08-03 16:00:00 -- -- -- -- -- -- -- -- --
2020-08-03 15:00:00 -- -- -- -- -- -- -- -- --
2020-08-03 14:00:00 -- -- -- -- -- -- -- -- --
2020-08-03 13:00:00 -- -- -- -- -- -- -- -- --
2020-08-03 12:00:00 -- -- -- -- -- -- -- -- --
2020-08-03 11:00:00 -- -- -- -- -- -- -- -- --
2020-08-03 10:00:00 -- -- -- -- -- -- -- -- --
2020-08-03 09:00:00 -- -- -- -- -- -- -- -- --
2020-08-03 08:00:00 -- -- -- -- -- -- -- -- --
2020-08-03 07:00:00 -- -- -- -- -- -- -- -- --
2020-08-03 06:00:00 -- -- -- -- -- -- -- -- --
2020-08-03 05:00:00 -- -- -- -- -- -- -- -- --
2020-08-03 04:00:00 -- -- -- -- -- -- -- -- --
2020-08-03 03:00:00 -- -- -- -- -- -- -- -- --
2020-08-03 02:00:00 -- -- -- -- -- -- -- -- --
2020-08-03 01:00:00 -- -- -- -- -- -- -- -- --
2020-08-03 00:00:00 25 27 Sudoeste 43 Sudoeste 0 -- -- 49
2020-08-02 23:00:00 25.5 29 Sudoeste 43 Sudoeste 0 -- -- 48
2020-08-02 22:00:00 27.2 35 Sudoeste 49 Sudoeste 0 -- -- 42
2020-08-02 21:00:00 30.5 35 Sudoeste 48 Sudoeste 0 -- -- 38
2020-08-02 20:00:00 33.9 38 Sudoeste 49 Sudoeste 0 -- -- 28
2020-08-02 19:00:00 37.4 31 Sudoeste 42 Sudoeste 0 -- -- 20
2020-08-02 18:00:00 39 25 Oeste 39 Sudoeste 0 -- -- 20
2020-08-02 17:00:00 39.2 22 Oeste 34 Oeste 0 -- -- 16
2020-08-02 16:00:00 38.9 21 Oeste 30 Oeste 0 -- -- 15
2020-08-02 15:00:00 37.6 13 Sudoeste 24 Sudoeste 0 -- -- 21
2020-08-02 14:00:00 35.9 8 Oeste 18 Oeste 0 -- -- 22
2020-08-02 13:00:00 34.6 5 Sudoeste 18 Sudoeste 0 -- -- 24
2020-08-02 12:00:00 32.6 4 Norte 12 Sur 0 -- -- 33
2020-08-02 11:00:00 30.5 4 Oeste 9 Nordeste 0 -- -- 40
2020-08-02 10:00:00 28.8 5 Nordeste 12 Este 0 -- -- 43
2020-08-02 09:00:00 26.1 4 Este 8 Este 0 -- -- 49
2020-08-02 08:00:00 24.5 4 Nordeste 6 Nordeste 0 -- -- 52
2020-08-02 07:00:00 24.4 2 Noroeste 10 Sur 0 -- -- 54
2020-08-02 06:00:00 24.9 9 Sur 14 Sur 0 -- -- 49
2020-08-02 05:00:00 25.3 9 Sur 12 Sur 0 -- -- 50
2020-08-02 04:00:00 25.7 9 Sudoeste 14 Sudoeste 0 -- -- 51
2020-08-02 03:00:00 25.3 12 Sudoeste 16 Sudoeste 0 -- -- 51
2020-08-02 02:00:00 25.7 14 Sudoeste 18 Sudoeste 0 -- -- 50
2020-08-02 01:00:00 26.4 15 Sudoeste 21 Sudoeste 0 -- -- 47
2020-08-02 00:00:00 27.6 15 Sudoeste 25 Sudoeste 0 -- -- 44
2020-08-01 23:00:00 29.9 18 Sudoeste 26 Sudoeste 0 -- -- 35
2020-08-01 22:00:00 33.5 18 Sudoeste 31 Sudoeste 0 -- -- 24
2020-08-01 21:00:00 36.2 23 Sudoeste 37 Sudoeste 0 -- -- 28
2020-08-01 20:00:00 40.9 9 Oeste 17 Oeste 0 -- -- 15
2020-08-01 19:00:00 42.1 8 Oeste 18 Oeste 0 -- -- 14
2020-08-01 18:00:00 42.2 9 Sudoeste 18 Oeste 0 -- -- 16
2020-08-01 17:00:00 41.5 5 Oeste 16 Norte 0 -- -- 16
2020-08-01 16:00:00 40.5 6 Sur 19 Norte 0 -- -- 20
2020-08-01 15:00:00 39.4 7 Norte 18 Norte 0 -- -- 22
2020-08-01 14:00:00 37.4 6 Norte 16 Norte 0 -- -- 26
2020-08-01 13:00:00 36 7 Nordeste 17 Este 0 -- -- 28
2020-08-01 12:00:00 34.1 8 Este 16 Este 0 -- -- 37
2020-08-01 11:00:00 31.4 8 Nordeste 16 Nordeste 0 -- -- 43
2020-08-01 10:00:00 28 3 Este 6 Norte 0 -- -- 62
2020-08-01 09:00:00 24.7 3 Norte 8 Oeste 0 -- -- 84
2020-08-01 08:00:00 23.5 6 Noroeste 13 Sur 0 -- -- 84
2020-08-01 07:00:00 23.7 12 Sudoeste 17 Sur 0 -- -- 80
2020-08-01 06:00:00 24.3 8 Sur 17 Sur 0 -- -- 75
2020-08-01 05:00:00 24.9 12 Oeste 23 Sudoeste 0 -- -- 72
2020-08-01 04:00:00 25.6 11 Sudoeste 20 Sudoeste 0 -- -- 71
2020-08-01 03:00:00 26.4 15 Sur 28 Sudoeste 0 -- -- 70
2020-08-01 02:00:00 27.2 19 Sudoeste 25 Sudoeste 0 -- -- 68
2020-08-01 01:00:00 28 14 Sudoeste 17 Sudoeste 0 -- -- 62
2020-08-01 00:00:00 29.1 12 Oeste 14 Oeste 0 -- -- 54
2020-07-31 23:00:00 31.5 8 Sudoeste 14 Oeste 0 -- -- 46
2020-07-31 22:00:00 32.4 10 Oeste 18 Sudoeste 0 -- -- 38
2020-07-31 21:00:00 35.1 13 Sudoeste 26 Oeste 0 -- -- 26
2020-07-31 20:00:00 37.1 18 Sudoeste 26 Sudoeste 0 -- -- 28
2020-07-31 19:00:00 38.5 17 Oeste 28 Sudoeste 0 -- -- 25
2020-07-31 18:00:00 38.9 19 Sudoeste 30 Oeste 0 -- -- 28
2020-07-31 17:00:00 39 13 Sudoeste 26 Sudoeste 0 -- -- 26
2020-07-31 16:00:00 38.2 14 Sudoeste 24 Oeste 0 -- -- 27
2020-07-31 15:00:00 37.2 13 Oeste 26 Noroeste 0 -- -- 31
2020-07-31 14:00:00 35.3 5 Oeste 12 Oeste 0 -- -- 36
2020-07-31 13:00:00 33.6 5 Norte 12 Este 0 -- -- 44
2020-07-31 12:00:00 32 5 Este 13 Este 0 -- -- 50
2020-07-31 11:00:00 29.4 4 Nordeste 7 Nordeste 0 -- -- 58
2020-07-31 10:00:00 26.4 3 Sudoeste 8 Sur 0 -- -- 72
2020-07-31 09:00:00 24.2 3 Sudoeste 5 Sur 0 -- -- 81
2020-07-31 08:00:00 22.8 3 Sur 11 Sur 0 -- -- 84
2020-07-31 07:00:00 23.1 6 Sur 11 Sur 0 -- -- 84
2020-07-31 06:00:00 23.3 7 Sur 12 Sur 0 -- -- 82
2020-07-31 05:00:00 23.6 10 Sur 12 Sur 0 -- -- 79
2020-07-31 04:00:00 24.3 4 Sudoeste 19 Sudoeste 0 -- -- 78
2020-07-31 03:00:00 24.8 16 Sudoeste 20 Sudoeste 0 -- -- 78
2020-07-31 02:00:00 25.5 14 Sudoeste 18 Sudoeste 0 -- -- 74
2020-07-31 01:00:00 26.3 13 Sudoeste 23 Sudoeste 0 -- -- 71
2020-07-31 00:00:00 27.4 15 Sudoeste 29 Sudoeste 0 -- -- 67
2020-07-30 23:00:00 29 16 Sudoeste 29 Sudoeste 0 -- -- 62
2020-07-30 22:00:00 31.2 24 Sudoeste 32 Sudoeste 0 -- -- 54
2020-07-30 21:00:00 34.1 23 Sudoeste 31 Oeste 0 -- -- 45
2020-07-30 20:00:00 36.4 21 Oeste 37 Oeste 0 -- -- 41
2020-07-30 19:00:00 37.7 21 Oeste 33 Oeste 0 -- -- 37
2020-07-30 18:00:00 38.7 16 Sudoeste 34 Oeste 0 -- -- 33
2020-07-30 17:00:00 38.6 17 Oeste 35 Sudoeste 0 -- -- 31
2020-07-30 16:00:00 38.3 14 Oeste 33 Oeste 0 -- -- 31
2020-07-30 15:00:00 37 13 Sudoeste 26 Sudoeste 0 -- -- 34
2020-07-30 14:00:00 35.6 11 Sudoeste 21 Oeste 0 -- -- 36
2020-07-30 13:00:00 34.3 6 Sur 17 Sur 0 -- -- 36
2020-07-30 12:00:00 31.8 4 Sudoeste 13 Norte 0 -- -- 42
2020-07-30 11:00:00 29.6 7 Oeste 12 Noroeste 0 -- -- 46
2020-07-30 10:00:00 27.5 4 Sudoeste 9 Sudoeste 0 -- -- 50
2020-07-30 09:00:00 26 4 Sur 7 Sur 0 -- -- 55
2020-07-30 08:00:00 24.4 3 Sur 10 Sudoeste 0 -- -- 57
2020-07-30 07:00:00 24.2 8 Sur 14 Sur 0 -- -- 55
2020-07-30 06:00:00 24.6 11 Sudoeste 12 Sur 0 -- -- 53
2020-07-30 05:00:00 25.5 8 Oeste 12 Sudoeste 0 -- -- 54
2020-07-30 04:00:00 25 10 Noroeste 13 Noroeste 0 -- -- 53
2020-07-30 03:00:00 25.6 11 Sur 19 Sudoeste 0 -- -- 48
2020-07-30 02:00:00 26.2 15 Sur 26 Sudoeste 0 -- -- 47
2020-07-30 01:00:00 27.6 17 Sudoeste 22 Sudoeste 0 -- -- 56
2020-07-30 00:00:00 28.6 10 Sudoeste 23 Sudoeste 0 -- -- 53
2020-07-29 23:00:00 30.6 18 Sudoeste 27 Sudoeste 0 -- -- 49
2020-07-29 22:00:00 32.7 17 Sudoeste 24 Oeste 0 -- -- 42
2020-07-29 21:00:00 34.7 17 Oeste 24 Oeste 0 -- -- 37
2020-07-29 20:00:00 36.8 17 Oeste 28 Noroeste 0 -- -- 34
2020-07-29 19:00:00 37.8 16 Oeste 28 Oeste 0 -- -- 30
2020-07-29 18:00:00 38.6 9 Oeste 22 Sudoeste 0 -- -- 29
2020-07-29 17:00:00 38.3 10 Noroeste 22 Noroeste 0 -- -- 28
2020-07-29 16:00:00 37.3 11 Oeste 26 Sudoeste 0 -- -- 31
2020-07-29 15:00:00 36.2 7 Sudeste 20 Sur 0 -- -- 34
2020-07-29 14:00:00 34.4 7 Sudoeste 22 Noroeste 0 -- -- 38
2020-07-29 13:00:00 32.4 5 Oeste 17 Oeste 0 -- -- 46
2020-07-29 12:00:00 29.8 7 Sudoeste 15 Sudoeste 0 -- -- 52
2020-07-29 11:00:00 27.7 8 Sudoeste 15 Sudoeste 0 -- -- 58
2020-07-29 10:00:00 25.7 7 Oeste 11 Noroeste 0 -- -- 66
2020-07-29 09:00:00 24 8 Norte 10 Noroeste 0 -- -- 67
2020-07-29 08:00:00 22.8 6 Noroeste 11 Sudoeste 0 -- -- 67
2020-07-29 07:00:00 23 8 Sudoeste 10 Oeste 0 -- -- 64
2020-07-29 06:00:00 23.9 4 Sudoeste 6 Sur 0 -- -- 60
2020-07-29 05:00:00 23.9 6 Sur 9 Sur 0 -- -- 61
2020-07-29 04:00:00 23.7 8 Sur 15 Sur 0 -- -- 62
2020-07-29 03:00:00 23.7 12 Sudoeste 18 Sudoeste 0 -- -- 64
2020-07-29 02:00:00 24.4 15 Sudoeste 25 Sudoeste 0 -- -- 64
2020-07-29 01:00:00 25.3 17 Sudoeste 29 Sudoeste 0 -- -- 63
2020-07-29 00:00:00 26.8 21 Sudoeste 28 Sudoeste 0 -- -- 58
2020-07-28 23:00:00 29.4 17 Sudoeste 25 Sudoeste 0 -- -- 50
2020-07-28 22:00:00 31.8 17 Sudoeste 29 Sudoeste 0 -- -- 37
2020-07-28 21:00:00 34.7 21 Sudoeste 30 Sudoeste 0 -- -- 32
2020-07-28 20:00:00 37.2 17 Oeste 26 Oeste 0 -- -- 30
2020-07-28 19:00:00 38.4 17 Oeste 30 Sudoeste 0 -- -- 25
2020-07-28 18:00:00 38.9 13 Oeste 28 Sudoeste 0 -- -- 27
2020-07-28 17:00:00 38.6 12 Oeste 26 Oeste 0 -- -- 26
2020-07-28 16:00:00 38.2 13 Oeste 25 Oeste 0 -- -- 26
2020-07-28 15:00:00 37.1 9 Oeste 18 Oeste 0 -- -- 30
2020-07-28 14:00:00 35.5 3 Norte 16 Oeste 0 -- -- 37
2020-07-28 13:00:00 33.3 4 Norte 14 Oeste 0 -- -- 43
2020-07-28 12:00:00 31.1 4 Oeste 10 Oeste 0 -- -- 47
2020-07-28 11:00:00 28.7 4 Oeste 9 Sudoeste 0 -- -- 52
2020-07-28 10:00:00 27.1 2 Nordeste 6 Sudeste 0 -- -- 60
2020-07-28 09:00:00 24 4 Sur 7 Sur 0 -- -- 75
2020-07-28 08:00:00 22.3 3 Sur 6 Sur 0 -- -- 81
2020-07-28 07:00:00 22.2 3 Sudoeste 12 Sudoeste 0 -- -- 82
2020-07-28 06:00:00 22.1 7 Sudoeste 12 Sudoeste 0 -- -- 81
2020-07-28 05:00:00 22.8 7 Sudoeste 12 Sur 0 -- -- 73
2020-07-28 04:00:00 23.2 6 Sur 15 Sur 0 -- -- 68
2020-07-28 03:00:00 23.6 14 Sudoeste 17 Sudoeste 0 -- -- 67
2020-07-28 02:00:00 24.3 13 Sur 21 Sudoeste 0 -- -- 67
2020-07-28 01:00:00 25 13 Sudoeste 19 Sudoeste 0 -- -- 64
2020-07-28 00:00:00 26.5 15 Sudoeste 23 Sudoeste 0 -- -- 57
2020-07-27 23:00:00 28.2 15 Sudoeste 23 Sudoeste 0 -- -- 48
2020-07-27 22:00:00 29.8 14 Sudoeste 29 Oeste 0 -- -- 41
2020-07-27 21:00:00 32.6 25 Oeste 41 Oeste 0 -- -- 37
2020-07-27 20:00:00 34.7 27 Oeste 40 Oeste 0 -- -- 34
2020-07-27 19:00:00 35.9 29 Oeste 39 Oeste 0 -- -- 35
2020-07-27 18:00:00 36 23 Sudoeste 36 Sudoeste 0 -- -- 40
2020-07-27 17:00:00 36.5 23 Oeste 34 Oeste 0 -- -- 39
2020-07-27 16:00:00 36.7 19 Oeste 32 Oeste 0 -- -- 37
2020-07-27 15:00:00 36 17 Sudoeste 29 Oeste 0 -- -- 34
2020-07-27 14:00:00 34.6 11 Sudoeste 22 Oeste 0 -- -- 36
2020-07-27 13:00:00 32.7 10 Oeste 19 Sudoeste 0 -- -- 39
2020-07-27 12:00:00 31.3 7 Oeste 16 Oeste 0 -- -- 41
2020-07-27 09:00:00 -- -- -- -- -- -- -- -- --
2020-07-27 08:00:00 24.6 12 Noroeste 19 Oeste 0 -- -- 53
2020-07-27 07:00:00 24.6 8 Oeste 11 Oeste 0 -- -- 55
2020-07-27 06:00:00 25.2 6 Oeste 12 Oeste 0 -- -- 55
2020-07-27 05:00:00 25.7 3 Oeste 10 Norte 0 -- -- 55
2020-07-27 04:00:00 25.9 4 Norte 12 Noroeste 0 -- -- 56
2020-07-27 03:00:00 26 9 Noroeste 19 Oeste 0 -- -- 58
2020-07-27 02:00:00 26.6 15 Oeste 26 Sudoeste 0 -- -- 57
2020-07-27 01:00:00 27.5 21 Sudoeste 37 Sudoeste 0 -- -- 54
2020-07-27 00:00:00 28.8 26 Sudoeste 36 Sudoeste 0 -- -- 48
2020-07-26 23:00:00 31.1 23 Sudoeste 31 Sudoeste 0 -- -- 42
2020-07-26 22:00:00 36.4 13 Sudoeste 14 Sudoeste 0 -- -- 25
2020-07-26 21:00:00 39 9 Oeste 19 Oeste 0 -- -- 24
2020-07-26 20:00:00 40.8 18 Oeste 37 Sudoeste 0 -- -- 23
2020-07-26 19:00:00 43.6 7 Este 19 Este 0 -- -- 16
2020-07-26 18:00:00 43.4 7 Sudeste 18 Sudeste 0 -- -- 16
2020-07-26 17:00:00 43.3 7 Sudeste 25 Sudeste 0 -- -- 16
2020-07-26 16:00:00 42.5 6 Nordeste 24 Este 0 -- -- 18
2020-07-26 15:00:00 41.1 11 Este 20 Sudeste 0 -- -- 20
2020-07-26 14:00:00 39.1 4 Sur 15 Este 0 -- -- 24
2020-07-26 13:00:00 37.3 6 Nordeste 11 Nordeste 0 -- -- 26
2020-07-26 12:00:00 35 4 Nordeste 13 Nordeste 0 -- -- 31
2020-07-26 11:00:00 32.7 5 Este 13 Este 0 -- -- 36
2020-07-26 10:00:00 30.9 4 Este 9 Este 0 -- -- 38
2020-07-26 09:00:00 27 5 Este 10 Este 0 -- -- 50
2020-07-26 08:00:00 23.7 6 Este 10 Este 0 -- -- 56
2020-07-26 07:00:00 25.2 0 Calma 6 Sur 0 -- -- 52
2020-07-26 06:00:00 25.8 4 Sur 11 Sur 0 -- -- 50
2020-07-26 05:00:00 25.8 11 Sur 13 Sur 0 -- -- 51
2020-07-26 04:00:00 25.7 9 Sur 21 Sur 0 -- -- 52
2020-07-26 03:00:00 26.1 17 Sudoeste 20 Sudoeste 0 -- -- 53
2020-07-26 02:00:00 27 16 Sudoeste 20 Sur 0 -- -- 53
2020-07-26 01:00:00 28.3 17 Sudoeste 20 Sudoeste 0 -- -- 49
2020-07-26 00:00:00 30.3 14 Sudoeste 21 Sudoeste 0 -- -- 43
2020-07-25 23:00:00 32.2 17 Sudoeste 26 Sudoeste 0 -- -- 39
2020-07-25 22:00:00 34 16 Sudoeste 22 Oeste 0 -- -- 34
2020-07-25 21:00:00 37.2 14 Noroeste 22 Oeste 0 -- -- 26
2020-07-25 20:00:00 38.8 13 Oeste 27 Oeste 0 -- -- 25
2020-07-25 19:00:00 39.5 15 Oeste 31 Oeste 0 -- -- 25
2020-07-25 18:00:00 40 19 Oeste 30 Oeste 0 -- -- 23
2020-07-25 17:00:00 40.2 16 Oeste 26 Sudoeste 0 -- -- 22
2020-07-25 16:00:00 40.1 6 Sudeste 24 Oeste 0 -- -- 20
2020-07-25 15:00:00 38.9 7 Sudoeste 17 Oeste 0 -- -- 21
2020-07-25 14:00:00 38.1 11 Oeste 19 Sudoeste 0 -- -- 22
2020-07-25 13:00:00 36.3 6 Norte 12 Norte 0 -- -- 25
2020-07-25 12:00:00 34.8 5 Norte 11 Este 0 -- -- 27
2020-07-25 11:00:00 32.9 4 Nordeste 10 Norte 0 -- -- 29
2020-07-25 10:00:00 30.7 5 Este 11 Este 0 -- -- 32
2020-07-25 09:00:00 26.9 4 Sudeste 8 Sudeste 0 -- -- 36
2020-07-25 08:00:00 23.7 6 Este 9 Este 0 -- -- 43
2020-07-25 07:00:00 25.5 0 Calma 7 Este 0 -- -- 38
2020-07-25 06:00:00 25.6 0 Calma 7 Sur 0 -- -- 38
2020-07-25 05:00:00 26.6 3 Sur 14 Sur 0 -- -- 36
2020-07-25 04:00:00 26.4 9 Sur 15 Sur 0 -- -- 37
2020-07-25 03:00:00 26 14 Sur 18 Sur 0 -- -- 42
2020-07-25 02:00:00 26.1 15 Sur 19 Sur 0 -- -- 46
2020-07-25 01:00:00 27 14 Sur 20 Sudoeste 0 -- -- 45
2020-07-25 00:00:00 28.5 14 Sudoeste 26 Sudoeste 0 -- -- 44
2020-07-24 23:00:00 30.8 17 Sudoeste 26 Sudoeste 0 -- -- 39
2020-07-24 22:00:00 33.8 22 Sudoeste 32 Sudoeste 0 -- -- 28
2020-07-24 21:00:00 36.7 20 Oeste 29 Sudoeste 0 -- -- 25
2020-07-24 20:00:00 38.7 13 Oeste 25 Oeste 0 -- -- 23
2020-07-24 19:00:00 39.2 11 Oeste 36 Oeste 0 -- -- 21
2020-07-24 18:00:00 39.6 14 Oeste 30 Oeste 0 -- -- 22
2020-07-24 17:00:00 39.7 17 Oeste 30 Oeste 0 -- -- 24
2020-07-24 16:00:00 39.6 6 Oeste 27 Oeste 0 -- -- 23
2020-07-24 15:00:00 38.4 11 Oeste 21 Oeste 0 -- -- 24
2020-07-24 14:00:00 37.5 5 Noroeste 18 Noroeste 0 -- -- 27
2020-07-24 13:00:00 36 4 Norte 12 Sudoeste 0 -- -- 31
2020-07-24 12:00:00 34.2 5 Sudoeste 12 Sudoeste 0 -- -- 35
2020-07-24 11:00:00 31.7 3 Sudeste 8 Sudeste 0 -- -- 39
2020-07-24 10:00:00 28.8 6 Sur 10 Sur 0 -- -- 46
2020-07-24 09:00:00 27.3 2 Sudoeste 5 Sudoeste 0 -- -- 52
2020-07-24 08:00:00 25.5 2 Oeste 7 Sudoeste 0 -- -- 54
2020-07-24 07:00:00 25 5 Sudoeste 14 Sur 0 -- -- 53
2020-07-24 06:00:00 24.9 13 Sudoeste 16 Sur 0 -- -- 53
2020-07-24 05:00:00 24.8 12 Sudoeste 15 Sudoeste 0 -- -- 52
2020-07-24 04:00:00 25.7 12 Sudoeste 19 Sudoeste 0 -- -- 50
2020-07-24 03:00:00 26.6 16 Sudoeste 20 Sudoeste 0 -- -- 48
2020-07-24 02:00:00 26.9 13 Sur 25 Sudoeste 0 -- -- 47
2020-07-24 01:00:00 27.4 20 Sudoeste 27 Sur 0 -- -- 48
2020-07-24 00:00:00 28.7 18 Sudoeste 27 Sudoeste 0 -- -- 45
2020-07-23 23:00:00 30.4 21 Sudoeste 32 Sudoeste 0 -- -- 42
2020-07-23 22:00:00 32.3 27 Sudoeste 35 Sudoeste 0 -- -- 37
2020-07-23 21:00:00 34.8 28 Oeste 40 Oeste 0 -- -- 34
2020-07-23 20:00:00 36.7 28 Sudoeste 39 Sudoeste 0 -- -- 33
2020-07-23 19:00:00 39.3 5 Sur 24 Oeste 0 -- -- 22
2020-07-23 18:00:00 39.2 5 Noroeste 15 Oeste 0 -- -- 22
2020-07-23 17:00:00 38.4 8 Sudoeste 18 Oeste 0 -- -- 22
2020-07-23 16:00:00 38 4 Sudeste 20 Sudoeste 0 -- -- 25
2020-07-23 15:00:00 36.8 9 Sudoeste 17 Noroeste 0 -- -- 29
2020-07-23 14:00:00 35.2 6 Sur 18 Oeste 0 -- -- 34
2020-07-23 13:00:00 33.1 6 Sur 13 Oeste 0 -- -- 41
2020-07-23 12:00:00 30.7 5 Oeste 14 Sudoeste 0 -- -- 48
2020-07-23 11:00:00 28.3 5 Sudoeste 11 Sudoeste 0 -- -- 56
2020-07-23 10:00:00 25.8 6 Sudoeste 12 Sudoeste 0 -- -- 65
2020-07-23 09:00:00 23.5 5 Sudoeste 9 Sudoeste 0 -- -- 77
2020-07-23 08:00:00 22.2 5 Sudoeste 8 Sudoeste 0 -- -- 81
2020-07-23 07:00:00 22.3 5 Sudoeste 12 Sudoeste 0 -- -- 80
2020-07-23 06:00:00 22.4 11 Sudoeste 12 Sur 0 -- -- 75
2020-07-23 05:00:00 22.6 10 Sudoeste 14 Sudoeste 0 -- -- 75
2020-07-23 04:00:00 23.3 13 Sudoeste 18 Sudoeste 0 -- -- 72
2020-07-23 03:00:00 24 15 Sudoeste 22 Sudoeste 0 -- -- 70
2020-07-23 02:00:00 24.7 16 Sudoeste 23 Sudoeste 0 -- -- 68
2020-07-23 01:00:00 26 15 Sudoeste 20 Sudoeste 0 -- -- 63
2020-07-23 00:00:00 27.4 14 Sudoeste 21 Oeste 0 -- -- 59
2020-07-22 23:00:00 28.5 17 Oeste 25 Sudoeste 0 -- -- 57
2020-07-22 22:00:00 30.1 18 Oeste 30 Oeste 0 -- -- 51
2020-07-22 21:00:00 31.8 25 Oeste 35 Sudoeste 0 -- -- 46
2020-07-22 20:00:00 34.9 10 Sudoeste 21 Sudoeste 0 -- -- 33
2020-07-22 19:00:00 35.2 9 Oeste 20 Oeste 0 -- -- 32
2020-07-22 18:00:00 34.8 9 Oeste 18 Sur 0 -- -- 33
2020-07-22 17:00:00 34 6 Oeste 16 Oeste 0 -- -- 33
2020-07-22 16:00:00 33.8 6 Sudoeste 22 Oeste 0 -- -- 35
2020-07-22 15:00:00 32.1 10 Oeste 22 Oeste 0 -- -- 39
2020-07-22 14:00:00 30.6 11 Noroeste 17 Noroeste 0 -- -- 41
2020-07-22 13:00:00 29.1 5 Oeste 14 Oeste 0 -- -- 50
2020-07-22 12:00:00 28.2 5 Sudeste 14 Oeste 0 -- -- 56
2020-07-22 11:00:00 25.5 7 Oeste 13 Sudoeste 0 -- -- 67
2020-07-22 10:00:00 24.5 7 Sudoeste 14 Sudoeste 0 -- -- 74
2020-07-22 09:00:00 22.8 8 Sur 10 Sur 0 -- -- 79
2020-07-22 08:00:00 21.2 5 Sur 11 Sudeste 0 -- -- 82
2020-07-22 07:00:00 21.9 5 Sur 7 Sur 0 -- -- 82
2020-07-22 06:00:00 22 4 Noroeste 9 Noroeste 0 -- -- 81
2020-07-22 05:00:00 22.3 4 Noroeste 13 Noroeste 0 -- -- 80
2020-07-22 04:00:00 22.8 9 Oeste 22 Sudoeste 0 -- -- 78
2020-07-22 03:00:00 23 18 Sudoeste 26 Sudoeste 0 -- -- 78
2020-07-22 02:00:00 23.3 16 Sudoeste 25 Sudoeste 0 -- -- 76
2020-07-22 01:00:00 23.9 18 Sudoeste 23 Sudoeste 0 -- -- 74
2020-07-22 00:00:00 24.9 14 Sudoeste 27 Sudoeste 0 -- -- 71
2020-07-21 23:00:00 26 21 Sudoeste 31 Sudoeste 0 -- -- 67
2020-07-21 22:00:00 27.4 20 Sudoeste 31 Sudoeste 0 -- -- 61
2020-07-21 21:00:00 29.1 24 Sudoeste 35 Sudoeste 0 -- -- 56
2020-07-21 20:00:00 31.2 26 Sudoeste 40 Oeste 0 -- -- 50
2020-07-21 19:00:00 33.1 28 Oeste 39 Sudoeste 0 -- -- 45
2020-07-21 18:00:00 34.7 14 Oeste 29 Noroeste 0 -- -- 39
2020-07-21 17:00:00 34.2 9 Noroeste 26 Noroeste 0 -- -- 39
2020-07-21 16:00:00 33.3 17 Noroeste 29 Noroeste 0 -- -- 40
2020-07-21 15:00:00 32.3 21 Noroeste 33 Noroeste 0 -- -- 45
2020-07-21 14:00:00 31.1 18 Noroeste 34 Noroeste 0 -- -- 46
2020-07-21 13:00:00 30.1 21 Noroeste 31 Noroeste 0 -- -- 49
2020-07-21 12:00:00 29 21 Noroeste 31 Noroeste 0 -- -- 50
2020-07-21 11:00:00 28.5 5 Noroeste 14 Noroeste 0 -- -- 46
2020-07-21 10:00:00 25.3 6 Noroeste 11 Norte 0 -- -- 61
2020-07-21 09:00:00 23.9 5 Nordeste 18 Oeste 0.2 -- -- 66
2020-07-21 08:00:00 24 7 Noroeste 20 Oeste 0 -- -- 58
2020-07-21 07:00:00 24.3 11 Sudoeste 20 Sur 0 -- -- 60
2020-07-21 06:00:00 25.8 5 Sur 14 Este 0.2 -- -- 52
2020-07-21 05:00:00 26.9 4 Este 24 Este 1 -- -- 57
2020-07-21 04:00:00 28.6 10 Este 41 Sudeste 0 -- -- 38
2020-07-21 03:00:00 30.3 18 Sudeste 37 Sudeste 0 -- -- 32
2020-07-21 02:00:00 30.7 16 Sudeste 37 Sudeste 0 -- -- 33
2020-07-21 01:00:00 30.4 13 Sudeste 30 Sudeste 0 -- -- 34
2020-07-21 00:00:00 31.1 15 Sudeste 40 Sudeste 0 -- -- 33
2020-07-20 23:00:00 32.4 17 Sudeste 29 Este 0 -- -- 32
2020-07-20 22:00:00 33.7 15 Sudeste 28 Este 0 -- -- 29
2020-07-20 21:00:00 37.5 16 Sudeste 28 Sudeste 0 -- -- 22
2020-07-20 20:00:00 39.8 16 Sudeste 29 Este 0 -- -- 17
2020-07-20 19:00:00 40.9 16 Sudeste 33 Sudeste 0 -- -- 17
2020-07-20 18:00:00 41.6 16 Sudeste 32 Este 0 -- -- 15
2020-07-20 17:00:00 41.3 19 Sudeste 35 Sudeste 0 -- -- 17
2020-07-20 16:00:00 41.3 15 Este 32 Este 0 -- -- 18
2020-07-20 15:00:00 40.5 12 Este 28 Sudeste 0 -- -- 22
2020-07-20 14:00:00 39.2 14 Este 32 Sudeste 0 -- -- 25
2020-07-20 13:00:00 37.4 13 Este 29 Este 0 -- -- 30
2020-07-20 12:00:00 35.3 13 Este 33 Este 0 -- -- 36
2020-07-20 11:00:00 32.9 14 Sudeste 32 Este 0 -- -- 41
2020-07-20 10:00:00 30.6 18 Este 35 Este 0 -- -- 47
2020-07-20 09:00:00 26.7 11 Este 22 Este 0 -- -- 57
2020-07-20 08:00:00 23.1 8 Este 10 Este 0 -- -- 67
2020-07-20 07:00:00 23.8 5 Este 10 Este 0 -- -- 63
2020-07-20 06:00:00 23.6 6 Este 10 Este 0 -- -- 65
2020-07-20 05:00:00 24.2 4 Noroeste 10 Oeste 0 -- -- 64
2020-07-20 04:00:00 24.4 10 Sudoeste 19 Sur 0 -- -- 62
2020-07-20 03:00:00 25.6 18 Sur 21 Sur 0 -- -- 60
2020-07-20 02:00:00 25.6 14 Sur 17 Sur 0 -- -- 60
2020-07-20 01:00:00 27 13 Sur 17 Sur 0 -- -- 56
2020-07-20 00:00:00 28.4 9 Sudoeste 16 Sudoeste 0 -- -- 46
2020-07-19 23:00:00 29.9 13 Sudoeste 21 Oeste 0 -- -- 42
2020-07-19 22:00:00 32.2 18 Sudoeste 25 Oeste 0 -- -- 38
2020-07-19 21:00:00 34.8 19 Oeste 28 Oeste 0 -- -- 30
2020-07-19 20:00:00 37 18 Oeste 31 Sudoeste 0 -- -- 27
2020-07-19 19:00:00 37.9 15 Oeste 32 Oeste 0 -- -- 26
2020-07-19 18:00:00 37.8 19 Oeste 33 Oeste 0 -- -- 28
2020-07-19 17:00:00 37.7 19 Oeste 37 Oeste 0 -- -- 30
2020-07-19 16:00:00 36.9 17 Sudoeste 29 Sudoeste 0 -- -- 31
2020-07-19 15:00:00 35.8 13 Sudoeste 25 Sudoeste 0 -- -- 34
2020-07-19 14:00:00 34 9 Oeste 21 Oeste 0 -- -- 41
2020-07-19 13:00:00 32 11 Oeste 22 Sudoeste 0 -- -- 45
2020-07-19 12:00:00 29.9 9 Oeste 17 Oeste 0 -- -- 52
2020-07-19 11:00:00 27.8 9 Noroeste 15 Oeste 0 -- -- 61
2020-07-19 10:00:00 26.1 7 Noroeste 12 Noroeste 0 -- -- 66
2020-07-19 09:00:00 24.6 6 Noroeste 10 Noroeste 0 -- -- 71
2020-07-19 08:00:00 22.8 0 Calma 8 Sudoeste 0 -- -- 75
2020-07-19 07:00:00 22.4 8 Sudoeste 10 Sur 0 -- -- 73
2020-07-19 06:00:00 22.8 9 Sur 13 Sudoeste 0 -- -- 73
2020-07-19 05:00:00 23.3 9 Sudoeste 15 Sudoeste 0 -- -- 70
2020-07-19 04:00:00 23.7 12 Sudoeste 18 Sudoeste 0 -- -- 67
2020-07-19 03:00:00 24.4 15 Sudoeste 22 Sudoeste 0 -- -- 66
2020-07-19 02:00:00 25.2 15 Sudoeste 24 Sudoeste 0 -- -- 62
2020-07-19 01:00:00 26 19 Sudoeste 24 Sudoeste 0 -- -- 59
2020-07-19 00:00:00 27.2 18 Sudoeste 31 Sudoeste 0 -- -- 58
2020-07-18 23:00:00 29.7 18 Sudoeste 30 Sudoeste 0 -- -- 47
2020-07-18 22:00:00 31.4 24 Oeste 32 Sudoeste 0 -- -- 41
2020-07-18 21:00:00 33.1 25 Oeste 35 Oeste 0 -- -- 38
2020-07-18 20:00:00 35 27 Sudoeste 37 Sudoeste 0 -- -- 36
2020-07-18 19:00:00 36.5 22 Oeste 35 Oeste 0 -- -- 33
2020-07-18 18:00:00 37.2 21 Oeste 40 Sudoeste 0 -- -- 32
2020-07-18 17:00:00 37 20 Sudoeste 34 Sudoeste 0 -- -- 29
2020-07-18 16:00:00 36.3 19 Sudoeste 33 Sudoeste 0 -- -- 31
2020-07-18 15:00:00 35.8 19 Oeste 30 Sudoeste 0 -- -- 31
2020-07-18 14:00:00 34.7 11 Oeste 24 Noroeste 0 -- -- 32
2020-07-18 13:00:00 32.7 12 Noroeste 22 Noroeste 0 -- -- 36
2020-07-18 12:00:00 31 12 Noroeste 22 Oeste 0 -- -- 39
2020-07-18 11:00:00 28.9 7 Noroeste 14 Noroeste 0 -- -- 46
2020-07-18 10:00:00 27.1 7 Oeste 10 Oeste 0 -- -- 52
2020-07-18 09:00:00 24.7 7 Sudoeste 10 Sur 0 -- -- 64
2020-07-18 08:00:00 23.3 8 Sur 13 Sur 0 -- -- 69
2020-07-18 07:00:00 23 10 Sur 14 Sudoeste 0 -- -- 70
2020-07-18 06:00:00 23.6 13 Sur 18 Sudoeste 0 -- -- 67
2020-07-18 05:00:00 24.2 16 Sudoeste 20 Sur 0 -- -- 65
2020-07-18 04:00:00 25.1 16 Sudoeste 24 Sudoeste 0 -- -- 60
2020-07-18 03:00:00 26.1 17 Sudoeste 27 Sudoeste 0 -- -- 56
2020-07-18 02:00:00 27.2 19 Sudoeste 27 Sudoeste 0 -- -- 51
2020-07-18 01:00:00 28.5 15 Sudoeste 27 Sudoeste 0 -- -- 44
2020-07-18 00:00:00 30.1 15 Oeste 27 Sudoeste 0 -- -- 40
2020-07-17 23:00:00 31.5 21 Sudoeste 32 Sudoeste 0 -- -- 37
2020-07-17 22:00:00 32.9 19 Oeste 39 Oeste 0 -- -- 36
2020-07-17 21:00:00 35.9 31 Oeste 41 Oeste 0 -- -- 32
2020-07-17 20:00:00 39.7 13 Oeste 20 Oeste 0 -- -- 21
2020-07-17 19:00:00 40.8 5 Noroeste 13 Norte 0 -- -- 20
2020-07-17 18:00:00 41.3 4 Sudeste 16 Norte 0 -- -- 19
2020-07-17 17:00:00 40.6 6 Sur 19 Oeste 0 -- -- 19
2020-07-17 16:00:00 39.8 7 Sur 20 Noroeste 0 -- -- 19
2020-07-17 15:00:00 38.8 8 Noroeste 17 Oeste 0 -- -- 20
2020-07-17 14:00:00 37.4 8 Sudoeste 18 Sudoeste 0 -- -- 22
2020-07-17 13:00:00 36 5 Sudoeste 18 Sudoeste 0 -- -- 23
2020-07-17 12:00:00 34.8 8 Sudeste 18 Sudeste 0 -- -- 24
2020-07-17 11:00:00 33 12 Este 23 Sudeste 0 -- -- 27
2020-07-17 10:00:00 30.6 11 Este 21 Este 0 -- -- 30
2020-07-17 09:00:00 26.8 5 Nordeste 11 Este 0 -- -- 41
2020-07-17 08:00:00 23.5 6 Este 13 Este 0 -- -- 46
2020-07-17 07:00:00 23.6 8 Este 13 Sudeste 0 -- -- 46
2020-07-17 06:00:00 24.7 8 Sudeste 12 Sudeste 0 -- -- 42
2020-07-17 05:00:00 25.7 6 Sudeste 9 Sudeste 0 -- -- 35
2020-07-17 04:00:00 25.5 4 Este 9 Este 0 -- -- 35
2020-07-17 03:00:00 26.5 4 Nordeste 10 Este 0 -- -- 35
2020-07-17 02:00:00 27.2 3 Este 12 Sudeste 0 -- -- 34
2020-07-17 01:00:00 28 6 Sudeste 14 Sudeste 0 -- -- 33
2020-07-17 00:00:00 29.4 9 Sudeste 23 Sudeste 0 -- -- 32
2020-07-16 23:00:00 31.2 16 Sudeste 29 Sudeste 0 -- -- 28
2020-07-16 22:00:00 33.7 9 Sudeste 20 Sudeste 0 -- -- 23
2020-07-16 21:00:00 36.8 9 Sudeste 20 Sudeste 0 -- -- 20
2020-07-16 20:00:00 37.9 12 Sudeste 23 Sudeste 0 -- -- 20
2020-07-16 19:00:00 38.6 11 Sudeste 27 Este 0 -- -- 20
2020-07-16 18:00:00 38.8 13 Este 33 Este 0 -- -- 20
2020-07-16 17:00:00 38.5 17 Sudeste 36 Sudeste 0 -- -- 20
2020-07-16 16:00:00 37.5 22 Sudeste 39 Este 0 -- -- 22
2020-07-16 15:00:00 36.8 21 Sudeste 39 Este 0 -- -- 23
2020-07-16 14:00:00 35.8 21 Sudeste 39 Sudeste 0 -- -- 25
2020-07-16 13:00:00 34.8 22 Este 39 Sudeste 0 -- -- 27
2020-07-16 12:00:00 33.3 23 Este 40 Este 0 -- -- 30
2020-07-16 11:00:00 31.6 20 Este 37 Este 0 -- -- 33
2020-07-16 10:00:00 29.3 18 Este 38 Sudeste 0 -- -- 38
2020-07-16 09:00:00 27.3 18 Este 37 Sudeste 0 -- -- 43
2020-07-16 08:00:00 25 13 Este 28 Sudeste 0 -- -- 51
2020-07-16 07:00:00 25.6 20 Este 34 Sudeste 0 -- -- 46
2020-07-16 06:00:00 25.3 18 Este 32 Este 0 -- -- 43
2020-07-16 05:00:00 24.8 10 Este 18 Este 0 -- -- 39
2020-07-16 04:00:00 25.3 6 Este 15 Este 0 -- -- 46
2020-07-16 03:00:00 25.7 8 Este 12 Este 0 -- -- 44
2020-07-16 02:00:00 26.8 7 Sudeste 19 Sudeste 0 -- -- 42
2020-07-16 01:00:00 27.8 9 Sudeste 26 Sudeste 0 -- -- 40
2020-07-16 00:00:00 29 13 Sudeste 27 Sur 0 -- -- 38
2020-07-15 23:00:00 30 11 Sudeste 21 Sur 0 -- -- 33
2020-07-15 22:00:00 32.6 9 Sudeste 21 Sudeste 0 -- -- 27
2020-07-15 21:00:00 34.9 13 Sudeste 23 Sudeste 0 -- -- 23
2020-07-15 20:00:00 36.3 10 Sudeste 25 Este 0 -- -- 24
2020-07-15 19:00:00 36.9 14 Sudeste 29 Este 0 -- -- 24
2020-07-15 18:00:00 36.7 18 Sudeste 31 Sudeste 0 -- -- 24
2020-07-15 17:00:00 36.7 19 Sudeste 36 Este 0 -- -- 24
2020-07-15 16:00:00 36.5 19 Sudeste 38 Sudeste 0 -- -- 24
2020-07-15 15:00:00 36.1 19 Este 37 Este 0 -- -- 26
2020-07-15 14:00:00 34.7 21 Sudeste 41 Este 0 -- -- 29
2020-07-15 13:00:00 34 18 Este 36 Sudeste 0 -- -- 32
2020-07-15 12:00:00 32.1 19 Este 37 Sudeste 0 -- -- 39
2020-07-15 11:00:00 30.7 21 Este 34 Este 0 -- -- 42
2020-07-15 10:00:00 28.7 17 Este 29 Este 0 -- -- 45
2020-07-15 09:00:00 26.3 14 Este 24 Este 0 -- -- 53
2020-07-15 08:00:00 22.7 8 Este 15 Este 0 -- -- 61
2020-07-15 07:00:00 22.5 4 Este 7 Este 0 -- -- 66
2020-07-15 06:00:00 23 2 Nordeste 7 Este 0 -- -- 64
2020-07-15 05:00:00 23.3 4 Nordeste 9 Nordeste 0 -- -- 64
2020-07-15 04:00:00 23.5 3 Norte 7 Este 0 -- -- 63
2020-07-15 03:00:00 24.2 3 Nordeste 10 Sudoeste 0 -- -- 61
2020-07-15 02:00:00 24.6 12 Sudoeste 18 Sudoeste 0 -- -- 59
2020-07-15 01:00:00 25.7 14 Sudoeste 23 Sudoeste 0 -- -- 56
2020-07-15 00:00:00 27.3 14 Sudoeste 28 Oeste 0 -- -- 48
2020-07-14 23:00:00 28.8 19 Sudoeste 32 Sudoeste 0 -- -- 42
2020-07-14 22:00:00 30.4 25 Sudoeste 36 Sudoeste 0 -- -- 41
2020-07-14 21:00:00 33.3 28 Sudoeste 37 Oeste 0 -- -- 34
2020-07-14 20:00:00 35.6 27 Sudoeste 38 Sudoeste 0 -- -- 32
2020-07-14 19:00:00 37.8 25 Sudoeste 37 Sudoeste 0 -- -- 27
2020-07-14 18:00:00 37.5 21 Oeste 31 Oeste 0 -- -- 26
2020-07-14 17:00:00 37.4 18 Sudoeste 33 Oeste 0 -- -- 26
2020-07-14 16:00:00 36.5 15 Oeste 28 Oeste 0 -- -- 29
2020-07-14 15:00:00 35.5 13 Oeste 21 Sudoeste 0 -- -- 32
2020-07-14 14:00:00 34 10 Oeste 20 Oeste 0 -- -- 34
2020-07-14 13:00:00 32.6 8 Oeste 19 Oeste 0 -- -- 38
2020-07-14 12:00:00 30.6 4 Nordeste 15 Noroeste 0 -- -- 42
2020-07-14 11:00:00 28.6 4 Noroeste 14 Norte 0 -- -- 48
2020-07-14 10:00:00 26.6 3 Noroeste 13 Norte 0 -- -- 54
2020-07-14 09:00:00 24.8 8 Noroeste 12 Noroeste 0 -- -- 61
2020-07-14 08:00:00 22.8 5 Norte 11 Noroeste 0 -- -- 70
2020-07-14 07:00:00 22.4 8 Noroeste 13 Noroeste 0 -- -- 74
2020-07-14 06:00:00 22.5 8 Noroeste 12 Noroeste 0 -- -- 76
2020-07-14 05:00:00 22.9 7 Noroeste 12 Noroeste 0 -- -- 74
2020-07-14 04:00:00 23.3 7 Noroeste 10 Sudoeste 0 -- -- 69
2020-07-14 03:00:00 23.8 6 Sudoeste 19 Sudoeste 0 -- -- 67
2020-07-14 02:00:00 24.7 14 Sudoeste 28 Sudoeste 0 -- -- 65
2020-07-14 01:00:00 25.7 22 Sudoeste 31 Sudoeste 0 -- -- 61
2020-07-14 00:00:00 27.2 22 Sudoeste 32 Sudoeste 0 -- -- 54
2020-07-13 23:00:00 28.9 25 Sudoeste 37 Sudoeste 0 -- -- 49
2020-07-13 22:00:00 31.3 25 Sudoeste 35 Sudoeste 0 -- -- 46
2020-07-13 21:00:00 34.2 27 Sudoeste 39 Sudoeste 0 -- -- 39
2020-07-13 20:00:00 37.8 10 Oeste 19 Oeste 0 -- -- 29
2020-07-13 19:00:00 38 6 Oeste 18 Noroeste 0 -- -- 29
2020-07-13 18:00:00 38.1 5 Sudeste 19 Sudoeste 0 -- -- 28
2020-07-13 17:00:00 37.2 7 Sur 19 Oeste 0 -- -- 28
2020-07-13 16:00:00 36.2 8 Oeste 28 Sudoeste 0 -- -- 31
2020-07-13 15:00:00 34.8 6 Sudoeste 27 Oeste 0 -- -- 36
2020-07-13 14:00:00 33.1 10 Sudoeste 21 Oeste 0 -- -- 41
2020-07-13 13:00:00 31.3 9 Noroeste 19 Oeste 0 -- -- 48
2020-07-13 12:00:00 29.7 8 Sudoeste 14 Sudoeste 0 -- -- 52
2020-07-13 11:00:00 27.9 4 Sudoeste 11 Sudoeste 0 -- -- 60
2020-07-13 10:00:00 25.6 7 Oeste 14 Noroeste 0 -- -- 69
2020-07-13 09:00:00 24 10 Noroeste 14 Noroeste 0 -- -- 77
2020-07-13 08:00:00 22.2 8 Noroeste 11 Noroeste 0 -- -- 82
2020-07-13 07:00:00 22.3 8 Noroeste 15 Noroeste 0 -- -- 80
2020-07-13 06:00:00 22.8 10 Noroeste 13 Noroeste 0 -- -- 77
2020-07-13 05:00:00 23.1 9 Noroeste 12 Noroeste 0 -- -- 75
2020-07-13 04:00:00 23.9 8 Sudoeste 19 Sudoeste 0 -- -- 71
2020-07-13 03:00:00 24.6 17 Sudoeste 30 Sudoeste 0 -- -- 69
2020-07-13 02:00:00 24.9 21 Sudoeste 31 Sudoeste 0 -- -- 66
2020-07-13 01:00:00 25.7 19 Sudoeste 34 Sudoeste 0 -- -- 64
2020-07-13 00:00:00 27.5 21 Sudoeste 28 Sudoeste 0 -- -- 58